Time;durP1;ratioP1;P1;durP2;ratioP2;P2;SDS_P1;SDS_P2;PMS_P1;PMS_P2;Temp;Humidity;BMP_temperature;BMP_pressure;BME280_temperature;BME280_humidity;BME280_pressure;Samples;Min_cycle;Max_cycle;Signal;HPM_P1;HPM_P2
2023/12/27 00:01:49;;;;;;;20.63;10.60;;;;;;;7.65;68.76;99680.47;5031153;28;20022;-69
2023/12/27 00:04:14;;;;;;;23.70;11.32;;;;;;;7.81;68.11;99692.09;5030936;28;20460;-69
2023/12/27 00:06:40;;;;;;;19.83;12.25;;;;;;;7.83;68.30;99692.63;5032141;28;20032;-69
2023/12/27 00:09:06;;;;;;;25.85;12.32;;;;;;;7.82;67.79;99682.63;5032256;28;20120;-69
2023/12/27 00:11:32;;;;;;;23.15;11.98;;;;;;;7.90;67.82;99693.03;5034687;28;20105;-69
2023/12/27 00:13:58;;;;;;;20.98;11.55;;;;;;;7.88;67.57;99678.59;5050727;28;20115;-69
2023/12/27 00:16:23;;;;;;;16.48;10.02;;;;;;;7.88;67.71;99689.75;5049555;28;20033;-70
2023/12/27 00:18:49;;;;;;;19.45;11.20;;;;;;;7.93;67.57;99697.97;5052046;28;20028;-70
2023/12/27 00:21:14;;;;;;;15.55;10.07;;;;;;;7.97;67.66;99689.81;5050221;28;20059;-70
2023/12/27 00:23:40;;;;;;;14.40;8.63;;;;;;;7.94;67.78;99699.63;5050163;28;20107;-69
2023/12/27 00:26:05;;;;;;;20.60;7.82;;;;;;;7.97;66.90;99696.22;5047754;28;20044;-69
2023/12/27 00:28:31;;;;;;;13.27;8.27;;;;;;;7.95;67.02;99701.25;5036894;28;20511;-69
2023/12/27 00:30:56;;;;;;;11.23;7.13;;;;;;;7.96;67.25;99702.94;5051595;28;20041;-69
2023/12/27 00:33:22;;;;;;;14.07;8.98;;;;;;;7.95;66.87;99712.41;5051499;28;20036;-69
2023/12/27 00:35:47;;;;;;;14.18;7.93;;;;;;;8.01;66.36;99713.97;5051716;28;20036;-69
2023/12/27 00:38:13;;;;;;;13.57;7.28;;;;;;;7.96;67.24;99711.28;5050970;28;20044;-69
2023/12/27 00:40:38;;;;;;;12.48;7.20;;;;;;;8.04;66.68;99717.25;5050297;28;20116;-69
2023/12/27 00:43:04;;;;;;;14.73;7.20;;;;;;;8.06;67.18;99720.53;5051811;28;20024;-69
2023/12/27 00:45:31;;;;;;;11.70;7.00;;;;;;;8.10;66.54;99727.97;5034042;28;20029;-69
2023/12/27 00:47:56;;;;;;;15.60;7.28;;;;;;;7.99;67.06;99727.38;5032050;28;20030;-69
2023/12/27 00:50:22;;;;;;;17.17;8.80;;;;;;;8.03;66.96;99727.59;5032256;28;20034;-72
2023/12/27 00:52:47;;;;;;;12.48;7.88;;;;;;;8.01;67.22;99729.84;5030223;28;20033;-72
2023/12/27 00:55:13;;;;;;;8.25;5.57;;;;;;;7.85;67.77;99727.38;5031632;28;20079;-72
2023/12/27 00:57:38;;;;;;;12.95;7.07;;;;;;;7.82;67.78;99728.00;5031198;28;20037;-72
2023/12/27 01:00:04;;;;;;;11.77;7.28;;;;;;;7.73;68.21;99730.69;5048031;28;20067;-71
2023/12/27 01:02:30;;;;;;;10.93;6.95;;;;;;;7.68;68.96;99741.91;5051062;28;20028;-72
2023/12/27 01:04:56;;;;;;;11.13;6.80;;;;;;;7.63;68.82;99730.91;5051352;28;20033;-71
2023/12/27 01:07:22;;;;;;;10.15;5.90;;;;;;;7.56;69.62;99741.59;5051418;28;20473;-72
2023/12/27 01:09:48;;;;;;;12.43;5.97;;;;;;;7.51;69.91;99747.28;5049955;28;20037;-71
2023/12/27 01:12:13;;;;;;;10.48;6.18;;;;;;;7.47;69.89;99737.88;5037646;28;20041;-72
2023/12/27 01:14:39;;;;;;;10.32;5.97;;;;;;;7.55;69.83;99739.97;5030087;28;20029;-72
2023/12/27 01:17:04;;;;;;;13.27;6.13;;;;;;;7.57;70.12;99743.25;5031621;28;20521;-71
2023/12/27 01:19:30;;;;;;;15.80;7.25;;;;;;;7.52;70.33;99738.59;5032320;28;20037;-71
2023/12/27 01:21:55;;;;;;;13.57;7.72;;;;;;;7.42;70.61;99741.59;5057808;28;20100;-72
2023/12/27 01:24:21;;;;;;;10.73;6.35;;;;;;;7.45;70.67;99736.22;5049806;28;20053;-71
2023/12/27 01:26:46;;;;;;;13.25;6.38;;;;;;;7.50;69.83;99735.31;5051170;28;20154;-71
2023/12/27 01:29:12;;;;;;;11.77;6.10;;;;;;;7.62;69.79;99742.34;5048153;28;20481;-71
2023/12/27 01:31:37;;;;;;;11.05;6.78;;;;;;;7.65;70.00;99747.28;5030075;28;20033;-72
2023/12/27 01:34:03;;;;;;;12.32;6.70;;;;;;;7.61;70.46;99744.31;5032901;28;20029;-72
2023/12/27 01:36:28;;;;;;;15.82;7.20;;;;;;;7.52;70.35;99749.75;5035119;28;20037;-72
2023/12/27 01:38:54;;;;;;;13.48;7.20;;;;;;;7.49;70.72;99755.13;5033840;28;20021;-72
2023/12/27 01:41:19;;;;;;;9.57;6.00;;;;;;;7.43;70.79;99746.84;5033569;28;20021;-71
2023/12/27 01:43:45;;;;;;;11.40;6.90;;;;;;;7.29;71.49;99746.00;5042125;28;20048;-72
2023/12/27 01:46:11;;;;;;;14.65;5.78;;;;;;;7.25;72.13;99742.19;5054770;28;20516;-72
2023/12/27 01:48:37;;;;;;;13.32;7.15;;;;;;;7.26;71.94;99752.19;5054945;28;20493;-72
2023/12/27 01:51:03;;;;;;;17.42;7.10;;;;;;;7.21;72.36;99746.72;5041601;28;20490;-72
2023/12/27 01:53:29;;;;;;;11.80;6.45;;;;;;;7.08;72.71;99751.13;5034880;28;20029;-72
2023/12/27 01:55:55;;;;;;;12.48;7.18;;;;;;;7.09;72.27;99745.22;5042888;28;20094;-71
2023/12/27 01:58:22;;;;;;;9.10;6.65;;;;;;;6.98;72.40;99743.75;5055467;28;20466;-71
2023/12/27 02:00:48;;;;;;;10.60;6.50;;;;;;;6.83;72.03;99742.09;5036389;28;20109;-71
2023/12/27 02:03:13;;;;;;;14.63;6.25;;;;;;;6.81;71.24;99750.72;5033587;28;20040;-71
2023/12/27 02:05:40;;;;;;;9.57;6.88;;;;;;;6.81;71.36;99747.09;5033224;28;20030;-71
2023/12/27 02:08:09;;;;;;;13.82;7.05;;;;;;;6.83;70.56;99750.41;5035791;28;20478;-71
2023/12/27 02:10:35;;;;;;;14.40;8.57;;;;;;;6.80;70.68;99740.72;5032983;28;20029;-72
2023/12/27 02:13:05;;;;;;;14.30;8.93;;;;;;;6.85;70.57;99748.97;5033160;28;20091;-72
2023/12/27 02:15:31;;;;;;;14.68;6.68;;;;;;;6.93;69.94;99752.19;5037858;28;20486;-72
2023/12/27 02:17:59;;;;;;;13.30;7.70;;;;;;;6.98;70.03;99755.72;5038486;28;20088;-72
2023/12/27 02:20:25;;;;;;;13.18;7.65;;;;;;;7.01;69.98;99751.50;5034146;28;20025;-71
2023/12/27 02:22:52;;;;;;;11.95;6.80;;;;;;;6.70;71.04;99750.06;5034003;28;20045;-71
2023/12/27 02:25:19;;;;;;;10.95;6.63;;;;;;;6.48;71.89;99747.88;5034027;28;20084;-71
2023/12/27 02:27:45;;;;;;;9.70;6.20;;;;;;;6.47;72.52;99749.00;5034136;28;20021;-71
2023/12/27 02:30:21;;;;;;;14.98;7.15;;;;;;;6.62;72.69;99761.84;5037730;28;20047;-72
2023/12/27 02:32:48;;;;;;;16.05;7.28;;;;;;;6.79;71.94;99761.31;5034096;28;20029;-72
2023/12/27 02:35:13;;;;;;;20.30;7.15;;;;;;;6.84;71.22;99766.78;5032725;28;20021;-71
2023/12/27 02:37:39;;;;;;;14.27;6.95;;;;;;;6.74;70.68;99756.66;5034055;28;20441;-71
2023/12/27 02:40:06;;;;;;;14.57;6.68;;;;;;;6.70;71.41;99774.25;5034110;28;20032;-71
2023/12/27 02:42:31;;;;;;;8.68;5.28;;;;;;;6.66;71.18;99775.97;5033665;28;20025;-71
2023/12/27 02:44:57;;;;;;;8.02;5.15;;;;;;;6.46;71.80;99766.81;5033631;28;20029;-71
2023/12/27 02:47:22;;;;;;;10.35;5.70;;;;;;;6.44;71.38;99771.84;5050474;28;20024;-71
2023/12/27 02:49:47;;;;;;;19.25;8.73;;;;;;;6.45;71.89;99773.50;5047651;28;20048;-71
2023/12/27 02:52:13;;;;;;;14.13;9.10;;;;;;;6.50;72.22;99773.41;5053523;28;20032;-71
2023/12/27 02:54:38;;;;;;;21.02;10.50;;;;;;;6.51;72.67;99777.03;5053681;28;20555;-71
2023/12/27 02:57:04;;;;;;;26.77;14.18;;;;;;;6.62;72.85;99784.09;5053283;28;20536;-72
2023/12/27 02:59:29;;;;;;;28.63;13.63;;;;;;;6.69;72.61;99783.72;5062862;28;20374;-72
2023/12/27 03:01:55;;;;;;;26.95;13.23;;;;;;;6.80;72.12;99788.00;5060356;28;20128;-72
2023/12/27 03:04:20;;;;;;;24.48;15.30;;;;;;;6.85;72.36;99795.44;5043013;28;20052;-72
2023/12/27 03:06:46;;;;;;;30.13;15.38;;;;;;;6.94;71.44;99798.34;5033387;28;20022;-71
2023/12/27 03:09:11;;;;;;;23.42;12.45;;;;;;;7.01;70.69;99805.16;5033185;28;20104;-71
2023/12/27 03:11:37;;;;;;;19.70;10.88;;;;;;;7.12;70.13;99803.06;5033377;28;20025;-71
2023/12/27 03:14:02;;;;;;;10.70;7.25;;;;;;;7.11;68.95;99803.34;5033192;28;20048;-71
2023/12/27 03:16:28;;;;;;;11.63;6.00;;;;;;;7.09;68.65;99794.50;5032980;28;20537;-71
2023/12/27 03:18:54;;;;;;;13.10;6.13;;;;;;;7.11;68.51;99795.81;5033210;28;20052;-71
2023/12/27 03:21:20;;;;;;;13.23;6.28;;;;;;;7.08;68.59;99802.00;5033837;28;20018;-71
2023/12/27 03:23:46;;;;;;;17.50;7.88;;;;;;;6.93;69.09;99796.69;5032967;28;20592;-71
2023/12/27 03:26:12;;;;;;;16.77;9.27;;;;;;;6.82;69.28;99785.72;5031753;28;20033;-71
2023/12/27 03:28:37;;;;;;;15.38;7.90;;;;;;;6.75;69.54;99796.41;5036361;28;20032;-71
2023/12/27 03:31:03;;;;;;;11.50;6.63;;;;;;;6.56;70.37;99788.06;5072754;28;20031;-71
2023/12/27 03:33:29;;;;;;;9.07;5.72;;;;;;;6.61;70.57;99785.22;5071446;28;20481;-72
2023/12/27 03:35:54;;;;;;;12.65;4.95;;;;;;;6.39;71.61;99788.56;5071564;28;20039;-72
2023/12/27 03:38:19;;;;;;;12.90;5.30;;;;;;;6.43;71.44;99796.03;5055991;28;20052;-71
2023/12/27 03:40:45;;;;;;;12.80;5.55;;;;;;;6.49;71.58;99799.56;5039476;28;20028;-71
2023/12/27 03:43:10;;;;;;;14.80;7.40;;;;;;;6.43;72.40;99798.78;5052541;28;20073;-70
2023/12/27 03:45:36;;;;;;;13.80;6.85;;;;;;;6.28;73.72;99804.56;5051319;28;20021;-71
2023/12/27 03:48:02;;;;;;;14.82;7.43;;;;;;;6.26;75.44;99815.97;5052088;28;20025;-71
2023/12/27 03:50:28;;;;;;;10.32;6.38;;;;;;;6.17;77.21;99810.25;5051026;28;20046;-71
2023/12/27 03:52:53;;;;;;;11.05;6.50;;;;;;;6.20;76.53;99802.44;5050952;28;20405;-71
2023/12/27 03:55:19;;;;;;;6.82;4.97;;;;;;;6.28;75.58;99802.63;5051634;28;20021;-71
2023/12/27 03:57:44;;;;;;;8.45;4.82;;;;;;;6.42;73.88;99802.69;5051994;28;20032;-71
2023/12/27 04:00:10;;;;;;;8.75;5.05;;;;;;;6.58;72.84;99803.31;5065437;28;20566;-72
2023/12/27 04:02:36;;;;;;;8.60;5.05;;;;;;;6.67;72.08;99803.47;5072206;28;20505;-71
2023/12/27 04:05:01;;;;;;;7.25;4.80;;;;;;;6.72;71.71;99799.78;5047014;28;20025;-71
2023/12/27 04:07:29;;;;;;;9.93;5.63;;;;;;;6.75;71.80;99807.50;5031219;28;20202;-71
2023/12/27 04:09:55;;;;;;;8.90;4.68;;;;;;;6.77;71.56;99798.88;5032679;28;20025;-72
2023/12/27 04:12:20;;;;;;;8.07;4.70;;;;;;;6.70;71.66;99810.38;5032679;28;20022;-72
2023/12/27 04:14:45;;;;;;;7.85;5.03;;;;;;;6.68;71.87;99813.44;5030754;28;20493;-73
2023/12/27 04:17:11;;;;;;;11.02;4.85;;;;;;;6.64;72.30;99823.53;5035642;28;20509;-72
2023/12/27 04:19:36;;;;;;;13.00;5.57;;;;;;;6.63;72.45;99826.59;5047386;28;20449;-72
2023/12/27 04:22:02;;;;;;;10.35;5.05;;;;;;;6.66;73.15;99826.03;5031755;28;20066;-71
2023/12/27 04:24:27;;;;;;;10.38;7.05;;;;;;;6.61;74.40;99824.13;5031763;28;20025;-72
2023/12/27 04:26:53;;;;;;;14.18;9.02;;;;;;;6.54;76.08;99827.28;5032046;28;20462;-72
2023/12/27 04:29:18;;;;;;;21.38;11.20;;;;;;;6.66;77.03;99828.81;5046878;28;20492;-71
2023/12/27 04:31:43;;;;;;;20.88;9.23;;;;;;;6.65;77.65;99822.41;5070355;28;20385;-72
2023/12/27 04:34:09;;;;;;;17.10;9.93;;;;;;;6.73;78.10;99826.47;5071618;28;20444;-71
2023/12/27 04:36:38;;;;;;;24.65;11.93;;;;;;;6.95;77.67;99825.88;5071819;28;20451;-71
2023/12/27 04:39:03;;;;;;;20.42;8.88;;;;;;;6.98;78.04;99838.31;5056242;28;20029;-71
2023/12/27 04:41:29;;;;;;;14.05;6.00;;;;;;;7.02;77.80;99833.81;5030917;28;20029;-71
2023/12/27 04:43:54;;;;;;;17.35;6.85;;;;;;;7.28;77.65;99850.09;5030564;28;20056;-71
2023/12/27 04:46:20;;;;;;;14.77;9.23;;;;;;;7.26;77.17;99857.94;5031811;28;20028;-71
2023/12/27 04:48:45;;;;;;;17.10;8.93;;;;;;;7.29;77.24;99849.78;5030314;28;20083;-71
2023/12/27 04:51:12;;;;;;;13.85;7.40;;;;;;;7.20;77.86;99859.13;5030151;28;20028;-72
2023/12/27 04:53:37;;;;;;;12.70;7.50;;;;;;;7.09;78.15;99855.69;5030102;28;20029;-72
2023/12/27 04:56:03;;;;;;;24.13;9.15;;;;;;;7.00;78.45;99853.59;5031099;28;20532;-71
2023/12/27 04:58:29;;;;;;;30.45;12.05;;;;;;;7.11;77.81;99862.59;5031737;28;20478;-71
2023/12/27 05:00:54;;;;;;;19.83;10.18;;;;;;;6.86;79.25;99867.41;5069563;28;20055;-72
2023/12/27 05:03:19;;;;;;;23.63;10.00;;;;;;;6.79;80.60;99878.09;5069532;28;20111;-71
2023/12/27 05:05:45;;;;;;;15.32;8.98;;;;;;;6.78;80.56;99883.94;5071365;28;20028;-70
2023/12/27 05:08:10;;;;;;;21.83;10.98;;;;;;;6.75;81.11;99890.91;5070821;28;20440;-70
2023/12/27 05:10:36;;;;;;;22.38;12.50;;;;;;;6.68;81.71;99896.84;5035308;28;20064;-71
2023/12/27 05:13:02;;;;;;;19.55;10.68;;;;;;;6.71;81.93;99901.00;5033717;28;20040;-71
2023/12/27 05:15:27;;;;;;;19.90;11.15;;;;;;;6.73;81.31;99902.38;5034984;28;20033;-71
2023/12/27 05:17:53;;;;;;;28.38;15.52;;;;;;;6.79;81.21;99905.91;5033344;28;20033;-73
2023/12/27 05:20:18;;;;;;;16.80;9.00;;;;;;;6.76;82.08;99912.06;5033532;28;20037;-72
2023/12/27 05:22:44;;;;;;;15.38;9.13;;;;;;;6.72;81.84;99905.44;5033453;28;20080;-75
2023/12/27 05:25:10;;;;;;;13.55;8.20;;;;;;;6.82;81.53;99908.06;5034861;28;20048;-75
2023/12/27 05:27:35;;;;;;;18.23;10.45;;;;;;;6.66;82.43;99913.00;5034707;28;20099;-71
2023/12/27 05:30:03;;;;;;;25.60;13.50;;;;;;;6.57;83.45;99906.44;5060504;28;20492;-72
2023/12/27 05:32:29;;;;;;;107.90;46.95;;;;;;;6.56;83.89;99911.19;5059671;28;20386;-69
2023/12/27 05:34:54;;;;;;;63.30;29.65;;;;;;;6.69;83.98;99922.72;5052555;28;20029;-70
2023/12/27 05:37:20;;;;;;;59.22;25.80;;;;;;;6.65;85.16;99919.69;5054419;28;20029;-70
2023/12/27 05:39:46;;;;;;;50.65;20.23;;;;;;;6.70;84.57;99921.59;5053101;28;20071;-69
2023/12/27 05:42:15;;;;;;;21.70;10.20;;;;;;;6.91;84.68;99932.44;5054444;28;20061;-70
2023/12/27 05:44:40;;;;;;;23.15;10.68;;;;;;;7.03;84.18;99924.47;5054286;28;20390;-70
2023/12/27 05:47:06;;;;;;;20.38;8.18;;;;;;;7.14;83.65;99920.44;5044080;28;20091;-70
2023/12/27 05:49:32;;;;;;;15.43;7.93;;;;;;;7.20;83.49;99923.13;5032942;28;20108;-69
2023/12/27 05:51:57;;;;;;;16.80;8.35;;;;;;;7.38;81.18;99921.44;5034298;28;20539;-69
2023/12/27 05:54:24;;;;;;;12.63;6.43;;;;;;;7.50;80.60;99921.00;5032942;28;20101;-70
2023/12/27 05:56:50;;;;;;;14.60;6.50;;;;;;;7.64;79.10;99934.94;5032791;28;20125;-69
2023/12/27 05:59:15;;;;;;;9.98;5.55;;;;;;;7.71;78.62;99927.03;5045898;28;20334;-70
2023/12/27 06:01:48;;;;;;;13.80;6.53;;;;;;;7.75;77.50;99930.06;5060430;28;20030;-69
2023/12/27 06:04:17;;;;;;;13.38;8.23;;;;;;;7.75;75.88;99935.63;5033113;28;20060;-70
2023/12/27 06:06:43;;;;;;;10.95;6.88;;;;;;;7.66;74.37;99933.53;5034137;28;20028;-70
2023/12/27 06:09:10;;;;;;;13.02;8.80;;;;;;;7.57;72.92;99938.97;5032576;28;20037;-70
2023/12/27 06:11:35;;;;;;;28.20;18.23;;;;;;;7.54;72.21;99938.75;5033910;28;20022;-70
2023/12/27 06:14:01;;;;;;;81.20;55.30;;;;;;;7.55;71.82;99948.75;5032513;28;20422;-70
2023/12/27 06:16:26;;;;;;;46.70;35.50;;;;;;;7.58;71.58;99951.75;5036522;28;20481;-70
2023/12/27 06:18:54;;;;;;;113.35;54.42;;;;;;;7.59;71.57;99958.97;5038285;28;20033;-70
2023/12/27 06:21:20;;;;;;;27.88;19.30;;;;;;;7.65;71.64;99956.09;5033641;28;20036;-71
2023/12/27 06:23:46;;;;;;;100.20;68.50;;;;;;;7.71;70.88;99949.31;5034624;28;20120;-71
2023/12/27 06:26:11;;;;;;;34.83;27.98;;;;;;;7.77;71.03;99959.22;5033698;28;20084;-70
2023/12/27 06:28:37;;;;;;;14.57;9.43;;;;;;;7.78;71.18;99962.84;5034227;28;20478;-70
2023/12/27 06:31:03;;;;;;;12.60;7.47;;;;;;;7.78;71.36;99960.06;5045065;28;20034;-70
2023/12/27 06:33:29;;;;;;;14.55;6.50;;;;;;;7.76;71.66;99971.50;5051887;28;20412;-70
2023/12/27 06:35:55;;;;;;;27.60;16.50;;;;;;;7.85;72.04;99972.47;5053376;28;20454;-70
2023/12/27 06:38:20;;;;;;;21.50;16.65;;;;;;;7.96;71.27;99975.09;5052972;28;20167;-70
2023/12/27 06:40:46;;;;;;;24.20;13.75;;;;;;;8.01;70.74;99994.50;5035392;28;20030;-69
2023/12/27 06:43:11;;;;;;;61.50;31.52;;;;;;;8.10;70.64;99991.84;5032087;28;20021;-70
2023/12/27 06:45:37;;;;;;;30.45;18.10;;;;;;;8.23;70.15;100007.78;5037945;28;20021;-70
2023/12/27 06:48:03;;;;;;;20.35;11.43;;;;;;;8.31;70.48;99995.09;5033332;28;20025;-69
2023/12/27 06:50:28;;;;;;;12.15;7.95;;;;;;;8.18;71.13;100007.84;5041591;28;20059;-69
2023/12/27 06:52:54;;;;;;;10.73;6.93;;;;;;;8.33;71.03;100003.97;5045777;28;20037;-70
2023/12/27 06:55:20;;;;;;;29.15;7.18;;;;;;;8.51;70.86;100012.59;5045640;28;20509;-69
2023/12/27 06:57:45;;;;;;;26.08;12.15;;;;;;;8.07;71.99;100010.00;5048046;28;20057;-68
2023/12/27 07:00:11;;;;;;;47.50;26.23;;;;;;;8.19;72.76;100014.25;5034649;28;20025;-67
2023/12/27 07:02:38;;;;;;;69.55;38.47;;;;;;;8.51;71.92;100027.38;5030970;28;20034;-70
2023/12/27 07:05:04;;;;;;;71.13;38.75;;;;;;;8.68;71.74;100031.50;5038895;28;20049;-69
2023/12/27 07:07:29;;;;;;;68.53;35.22;;;;;;;8.84;71.40;100029.25;5038577;28;20474;-69
2023/12/27 07:09:55;;;;;;;61.17;34.20;;;;;;;9.08;70.50;100043.00;5049552;28;20489;-70
2023/12/27 07:12:23;;;;;;;46.08;26.92;;;;;;;9.26;70.41;100040.38;5049157;28;20021;-70
2023/12/27 07:14:49;;;;;;;47.28;28.65;;;;;;;9.42;69.82;100049.25;5033040;28;20042;-69
2023/12/27 07:17:15;;;;;;;56.25;28.42;;;;;;;9.58;69.70;100046.94;5029912;28;20070;-69
2023/12/27 07:19:40;;;;;;;32.25;17.15;;;;;;;9.63;70.11;100055.19;5029614;28;20114;-69
2023/12/27 07:22:06;;;;;;;22.15;13.45;;;;;;;9.79;70.48;100052.06;5030431;28;20036;-71
2023/12/27 07:24:31;;;;;;;31.70;26.15;;;;;;;9.91;70.95;100052.34;5031710;28;20509;-71
2023/12/27 07:26:57;;;;;;;27.35;16.40;;;;;;;10.08;70.23;100059.19;5036993;28;20029;-70
2023/12/27 07:29:22;;;;;;;43.25;35.72;;;;;;;10.23;69.81;100061.59;5032838;28;20457;-70
2023/12/27 07:31:49;;;;;;;20.00;12.20;;;;;;;10.34;70.01;100064.97;5029605;28;20398;-71
2023/12/27 07:34:15;;;;;;;44.60;34.35;;;;;;;10.47;69.45;100071.66;5029649;28;20037;-69
2023/12/27 07:36:41;;;;;;;35.95;25.40;;;;;;;10.56;68.58;100065.28;5031010;28;20426;-69
2023/12/27 07:39:09;;;;;;;21.88;14.45;;;;;;;10.73;68.46;100062.56;5049227;28;20035;-69
2023/12/27 07:41:34;;;;;;;11.70;8.43;;;;;;;10.95;67.64;100063.66;5034743;28;20417;-69
2023/12/27 07:44:00;;;;;;;25.13;12.90;;;;;;;11.09;67.22;100069.97;5033497;28;20024;-69
2023/12/27 07:46:25;;;;;;;21.88;11.27;;;;;;;11.19;66.60;100076.44;5029110;28;20029;-71
2023/12/27 07:48:51;;;;;;;23.42;11.00;;;;;;;11.22;65.85;100079.41;5028682;28;20100;-68
2023/12/27 07:51:16;;;;;;;21.88;10.23;;;;;;;11.31;64.53;100076.63;5032754;28;20029;-71
2023/12/27 07:53:42;;;;;;;23.10;9.77;;;;;;;11.44;65.24;100065.63;5046408;28;20033;-70
2023/12/27 07:56:12;;;;;;;16.38;8.55;;;;;;;11.53;64.86;100072.06;5041543;28;20044;-71
2023/12/27 07:58:37;;;;;;;17.45;9.07;;;;;;;11.74;64.47;100085.47;5030066;28;20030;-70
2023/12/27 08:01:03;;;;;;;19.75;8.15;;;;;;;11.82;63.82;100090.22;5029964;28;20048;-68
2023/12/27 08:03:29;;;;;;;16.95;8.35;;;;;;;12.01;62.80;100097.50;5033449;28;20190;-71
2023/12/27 08:05:54;;;;;;;19.75;10.77;;;;;;;12.13;63.15;100105.31;5028578;28;20040;-69
2023/12/27 08:08:20;;;;;;;24.92;12.02;;;;;;;12.11;63.04;100105.63;5029784;28;20037;-70
2023/12/27 08:10:45;;;;;;;22.50;9.57;;;;;;;12.13;62.72;100100.50;5029283;28;20033;-71
2023/12/27 08:13:11;;;;;;;17.48;8.60;;;;;;;12.17;63.24;100104.28;5035382;28;20116;-73
2023/12/27 08:15:36;;;;;;;13.48;7.90;;;;;;;12.17;63.55;100101.47;5039607;28;20533;-70
2023/12/27 08:18:03;;;;;;;16.73;8.57;;;;;;;12.23;64.69;100113.34;5029255;28;20429;-71
2023/12/27 08:20:30;;;;;;;20.00;9.77;;;;;;;12.37;65.40;100121.59;5036088;28;20465;-70
2023/12/27 08:22:55;;;;;;;19.25;9.18;;;;;;;12.42;65.02;100120.63;5030237;28;20057;-71
2023/12/27 08:25:21;;;;;;;14.63;8.65;;;;;;;12.42;64.04;100115.81;5042548;28;20478;-69
2023/12/27 08:27:46;;;;;;;12.07;7.60;;;;;;;12.43;64.76;100125.91;5028489;28;20029;-70
2023/12/27 08:30:13;;;;;;;13.30;8.00;;;;;;;12.48;63.92;100131.34;5032757;28;20687;-71
2023/12/27 08:32:39;;;;;;;12.15;6.32;;;;;;;12.56;63.77;100134.47;5027549;28;20044;-70
2023/12/27 08:35:05;;;;;;;10.05;6.07;;;;;;;12.64;63.38;100125.19;5027359;28;20042;-71
2023/12/27 08:37:30;;;;;;;10.18;7.43;;;;;;;12.75;62.35;100128.50;5029037;28;20025;-71
2023/12/27 08:39:56;;;;;;;10.55;6.03;;;;;;;12.92;62.07;100124.81;5028056;28;20406;-71
2023/12/27 08:42:21;;;;;;;19.13;7.85;;;;;;;13.00;61.42;100118.31;5044824;28;20029;-71
2023/12/27 08:44:47;;;;;;;13.35;7.20;;;;;;;13.11;61.27;100118.81;5032324;28;20049;-70
2023/12/27 08:47:12;;;;;;;25.67;17.92;;;;;;;13.24;61.14;100124.53;5028556;28;20505;-71
2023/12/27 08:49:38;;;;;;;38.47;23.85;;;;;;;13.25;60.20;100126.97;5029028;28;20462;-70
2023/12/27 08:52:04;;;;;;;19.92;7.50;;;;;;;13.29;59.61;100116.75;5046126;28;20029;-71
2023/12/27 08:54:29;;;;;;;10.65;6.20;;;;;;;13.43;59.15;100119.28;5047518;28;20025;-71
2023/12/27 08:56:55;;;;;;;11.52;5.80;;;;;;;13.58;58.30;100105.88;5036752;28;20454;-72
2023/12/27 08:59:21;;;;;;;10.93;5.90;;;;;;;13.59;57.74;100108.34;5036712;28;20051;-71
2023/12/27 09:01:47;;;;;;;11.13;5.93;;;;;;;13.69;57.38;100107.09;5039209;28;20033;-71
2023/12/27 09:04:12;;;;;;;15.07;8.23;;;;;;;13.81;57.76;100097.94;5038550;28;20556;-73
2023/12/27 09:06:38;;;;;;;13.20;7.47;;;;;;;14.08;56.47;100100.56;5033518;28;20029;-74
2023/12/27 09:09:03;;;;;;;23.50;7.53;;;;;;;14.15;56.56;100103.63;5045578;28;20025;-75
2023/12/27 09:11:29;;;;;;;13.40;5.45;;;;;;;14.18;56.32;100097.34;5042432;28;20030;-75
2023/12/27 09:13:54;;;;;;;12.07;6.60;;;;;;;14.16;56.84;100088.41;5035377;28;20036;-74
2023/12/27 09:16:20;;;;;;;11.15;6.60;;;;;;;14.32;55.84;100105.47;5037003;28;20029;-74
2023/12/27 09:18:45;;;;;;;18.15;9.50;;;;;;;14.37;56.48;100115.69;5030858;28;20021;-73
2023/12/27 09:21:11;;;;;;;15.00;8.40;;;;;;;14.32;56.92;100111.94;5035748;28;20067;-73
2023/12/27 09:23:37;;;;;;;15.65;6.15;;;;;;;14.55;56.03;100107.91;5038054;28;20046;-73
2023/12/27 09:26:02;;;;;;;8.52;5.47;;;;;;;14.70;54.67;100103.63;5032350;28;20029;-73
2023/12/27 09:28:28;;;;;;;11.93;6.95;;;;;;;14.77;55.04;100103.09;5045547;28;20112;-73
2023/12/27 09:30:54;;;;;;;27.90;19.58;;;;;;;14.92;54.49;100110.84;5046070;28;20029;-73
2023/12/27 09:33:19;;;;;;;13.45;7.68;;;;;;;14.98;54.18;100109.47;5038754;28;20441;-73
2023/12/27 09:35:45;;;;;;;12.20;6.45;;;;;;;15.08;53.65;100105.38;5030969;28;20060;-74
2023/12/27 09:38:10;;;;;;;15.23;7.00;;;;;;;15.05;54.33;100096.78;5035799;28;20485;-73
2023/12/27 09:40:36;;;;;;;19.85;7.75;;;;;;;15.27;54.18;100095.53;5032276;28;20029;-73
2023/12/27 09:43:06;;;;;;;18.45;7.20;;;;;;;15.08;54.10;100090.44;5029338;28;20032;-72
2023/12/27 09:45:36;;;;;;;7.63;4.28;;;;;;;15.01;53.07;100094.69;5034471;28;20103;-73
2023/12/27 09:48:02;;;;;;;15.15;5.72;;;;;;;15.02;53.87;100087.03;5055403;28;20047;-73
2023/12/27 09:50:28;;;;;;;9.30;4.60;;;;;;;15.20;52.30;100092.47;5039988;28;20025;-73
2023/12/27 09:52:56;;;;;;;10.27;6.53;;;;;;;15.26;52.13;100074.97;5039434;28;20029;-73
2023/12/27 09:55:21;;;;;;;11.82;3.78;;;;;;;15.32;52.45;100077.53;5033735;28;20024;-72
2023/12/27 09:57:49;;;;;;;11.73;4.63;;;;;;;15.33;52.04;100070.75;5037446;28;20098;-72
2023/12/27 10:00:16;;;;;;;10.73;3.65;;;;;;;15.39;51.65;100066.50;5038805;28;20102;-73
2023/12/27 10:02:44;;;;;;;8.07;3.80;;;;;;;15.36;51.12;100073.66;5050202;28;20020;-72
2023/12/27 10:05:21;;;;;;;7.47;3.90;;;;;;;15.50;50.66;100056.41;5043312;28;20025;-71
2023/12/27 10:07:47;;;;;;;21.85;8.65;;;;;;;15.58;49.30;100063.06;5044892;28;20069;-73
2023/12/27 10:10:13;;;;;;;12.23;6.35;;;;;;;15.49;48.09;100051.94;5052323;28;20105;-73
2023/12/27 10:12:40;;;;;;;12.43;7.13;;;;;;;15.58;48.91;100043.34;5033757;28;20029;-70
2023/12/27 10:15:07;;;;;;;7.10;3.30;;;;;;;15.75;47.04;100049.88;5049501;28;20028;-70
2023/12/27 10:17:33;;;;;;;20.33;10.95;;;;;;;15.72;46.89;100040.16;5060618;28;20021;-70
2023/12/27 10:19:59;;;;;;;12.45;5.40;;;;;;;15.71;46.69;100027.22;5048691;28;20151;-71
2023/12/27 10:22:25;;;;;;;8.68;3.90;;;;;;;15.86;45.89;100023.66;5057669;28;20044;-71
2023/12/27 10:24:51;;;;;;;9.15;3.40;;;;;;;15.83;45.69;100000.97;5059249;28;20485;-70
2023/12/27 10:27:16;;;;;;;8.52;3.85;;;;;;;15.81;45.54;100009.81;5060860;28;20025;-71
2023/12/27 10:29:47;;;;;;;6.50;4.07;;;;;;;15.89;46.00;100005.19;5068053;28;20107;-70
2023/12/27 10:32:15;;;;;;;10.70;3.22;;;;;;;15.89;45.15;100007.19;5052684;28;20063;-71
2023/12/27 10:34:41;;;;;;;5.85;3.92;;;;;;;15.88;44.94;99995.09;5051101;28;20493;-72
2023/12/27 10:37:11;;;;;;;9.85;3.65;;;;;;;15.98;44.99;100016.34;5055742;28;20036;-71
2023/12/27 10:39:42;;;;;;;4.75;3.63;;;;;;;16.11;44.43;100017.13;5056051;28;20025;-71
2023/12/27 10:42:08;;;;;;;8.68;4.45;;;;;;;16.09;44.10;100008.19;5039958;28;20118;-71
2023/12/27 10:44:33;;;;;;;8.50;3.50;;;;;;;16.07;44.25;100002.09;5056116;28;20485;-71
2023/12/27 10:47:03;;;;;;;10.63;4.03;;;;;;;16.19;44.30;100007.69;5072750;28;20039;-71
2023/12/27 10:49:31;;;;;;;7.70;3.47;;;;;;;16.21;44.05;100001.69;5067127;28;20032;-71
2023/12/27 10:51:59;;;;;;;11.23;3.38;;;;;;;16.17;43.26;100004.41;5042551;28;20032;-71
2023/12/27 10:54:25;;;;;;;6.72;3.10;;;;;;;16.09;42.65;100005.38;5052483;28;20031;-71
2023/12/27 10:56:53;;;;;;;4.45;3.33;;;;;;;16.06;43.33;99992.81;5071036;28;20024;-71
2023/12/27 10:59:19;;;;;;;10.15;5.90;;;;;;;16.19;43.66;99993.56;5066652;28;20043;-71
2023/12/27 11:01:46;;;;;;;8.60;3.60;;;;;;;16.23;43.28;99997.31;5056272;28;20135;-70
2023/12/27 11:04:14;;;;;;;4.90;3.83;;;;;;;16.19;43.11;99987.13;5056216;28;20021;-70
2023/12/27 11:06:39;;;;;;;11.27;4.78;;;;;;;16.23;43.93;99988.03;5044150;28;20039;-70
2023/12/27 11:09:07;;;;;;;8.95;3.83;;;;;;;16.26;43.12;99995.75;5049972;28;20024;-71
2023/12/27 11:11:40;;;;;;;6.40;3.03;;;;;;;16.41;42.95;100013.91;5046804;28;20045;-70
2023/12/27 11:14:11;;;;;;;5.45;3.00;;;;;;;16.28;42.87;99999.03;5050329;28;20453;-71
2023/12/27 11:16:42;;;;;;;4.35;2.63;;;;;;;16.28;42.24;99999.03;5036985;28;20440;-70
2023/12/27 11:19:08;;;;;;;6.88;2.75;;;;;;;16.25;41.75;100000.59;5040139;28;20414;-70
2023/12/27 11:21:37;;;;;;;7.45;2.80;;;;;;;16.38;43.01;99994.88;5049716;28;20033;-70